Time;durP1;ratioP1;P1;durP2;ratioP2;P2;SDS_P1;SDS_P2;PMS_P1;PMS_P2;Temp;Humidity;BMP_temperature;BMP_pressure;BME280_temperature;BME280_humidity;BME280_pressure;Samples;Min_cycle;Max_cycle;Signal;HPM_P1;HPM_P2
2022/10/16 00:02:06;;;;;;;50.33;30.05;;;17.30;75.60;;;;;;5096013;28;20024;-12
2022/10/16 00:04:32;;;;;;;51.80;29.17;;;17.30;75.50;;;;;;5094326;28;20506;-13
2022/10/16 00:06:58;;;;;;;53.58;32.83;;;17.30;75.60;;;;;;5095351;28;20031;-13
2022/10/16 00:09:24;;;;;;;51.10;31.13;;;17.20;75.70;;;;;;5095853;28;20152;-12
2022/10/16 00:11:50;;;;;;;49.42;29.13;;;17.20;75.60;;;;;;5095332;28;20044;-13
2022/10/16 00:14:16;;;;;;;48.72;29.15;;;17.20;75.70;;;;;;5094197;28;20114;-14
2022/10/16 00:16:42;;;;;;;47.72;27.92;;;17.20;75.80;;;;;;5095514;28;20032;-13
2022/10/16 00:19:10;;;;;;;51.13;29.90;;;17.20;76.10;;;;;;5095066;28;20426;-13
2022/10/16 00:21:37;;;;;;;51.10;30.27;;;17.10;76.20;;;;;;5095251;28;20027;-12
2022/10/16 00:24:06;;;;;;;46.65;29.33;;;17.10;76.40;;;;;;5095553;28;20028;-13
2022/10/16 00:26:37;;;;;;;50.67;30.98;;;17.10;76.30;;;;;;5095484;28;20060;-12
2022/10/16 00:29:04;;;;;;;48.30;29.27;;;17.00;76.30;;;;;;5095206;28;20024;-13
2022/10/16 00:31:30;;;;;;;59.60;34.08;;;17.00;76.30;;;;;;5095412;28;20027;-13
2022/10/16 00:33:56;;;;;;;52.60;31.80;;;17.00;76.50;;;;;;5095359;28;20032;-12
2022/10/16 00:36:25;;;;;;;51.08;29.52;;;17.00;76.50;;;;;;5095186;28;20058;-12
2022/10/16 00:38:56;;;;;;;51.45;31.17;;;17.00;76.50;;;;;;5095028;28;20031;-12
2022/10/16 00:41:24;;;;;;;52.03;29.90;;;17.00;76.60;;;;;;5095302;28;20113;-12
2022/10/16 00:43:59;;;;;;;54.85;33.20;;;17.00;76.60;;;;;;5095153;28;20066;-12
2022/10/16 00:46:27;;;;;;;58.35;33.58;;;17.00;76.60;;;;;;5093432;28;20020;-12
2022/10/16 00:49:02;;;;;;;49.90;30.42;;;17.00;76.70;;;;;;5094778;28;20036;-12
2022/10/16 00:52:00;;;;;;;48.80;28.83;;;17.00;76.70;;;;;;5094628;28;20088;-13
2022/10/16 00:54:29;;;;;;;54.35;31.55;;;17.00;76.80;;;;;;5032574;28;20116;-12
2022/10/16 00:56:56;;;;;;;44.88;27.25;;;17.00;77.20;;;;;;5032523;28;20041;-12
2022/10/16 00:59:28;;;;;;;44.33;27.50;;;17.00;77.30;;;;;;5032289;28;20052;-13
2022/10/16 01:01:55;;;;;;;52.50;29.73;;;16.90;77.00;;;;;;5032340;28;20143;-12
2022/10/16 01:04:23;;;;;;;56.60;32.08;;;16.90;77.00;;;;;;5032234;28;20151;-13
2022/10/16 01:06:49;;;;;;;51.15;30.25;;;16.90;77.20;;;;;;5032086;28;20064;-12
2022/10/16 01:09:21;;;;;;;49.83;30.23;;;16.90;77.00;;;;;;5032155;28;20057;-12
2022/10/16 01:11:55;;;;;;;50.88;29.35;;;16.90;77.10;;;;;;5031926;28;20092;-12
2022/10/16 01:14:36;;;;;;;54.60;31.13;;;16.90;77.10;;;;;;5032069;28;20405;-12
2022/10/16 01:17:12;;;;;;;49.78;32.22;;;16.90;77.10;;;;;;5032527;28;20580;-13
2022/10/16 01:20:01;;;;;;;51.38;31.05;;;16.90;77.10;;;;;;5031920;28;20193;-12
2022/10/16 01:22:43;;;;;;;49.42;30.35;;;16.90;77.10;;;;;;5031928;28;20034;-12
2022/10/16 01:25:20;;;;;;;50.33;31.05;;;16.90;77.10;;;;;;5015181;28;20030;-12
2022/10/16 01:27:48;;;;;;;54.47;31.60;;;16.80;77.20;;;;;;5031844;28;20037;-13
2022/10/16 01:30:29;;;;;;;63.70;35.45;;;16.90;77.40;;;;;;5068942;28;20398;-13
2022/10/16 01:33:12;;;;;;;48.22;28.77;;;16.80;77.50;;;;;;5093624;28;20532;-12
2022/10/16 01:35:53;;;;;;;50.40;29.83;;;16.80;77.40;;;;;;5094450;28;20024;-12
2022/10/16 01:38:34;;;;;;;49.92;29.13;;;16.70;77.50;;;;;;5094072;28;20089;-13
2022/10/16 01:41:13;;;;;;;50.72;30.20;;;16.70;77.50;;;;;;5093724;28;20031;-13
2022/10/16 01:43:46;;;;;;;50.03;28.70;;;16.70;77.60;;;;;;5093750;28;20028;-12
2022/10/16 01:46:14;;;;;;;;;;;16.70;77.50;;;;;;5094196;28;20024;-13
2022/10/16 01:48:41;;;;;;;46.45;28.73;;;16.70;78.40;;;;;;5093872;28;19911;-12
2022/10/16 01:51:11;;;;;;;45.53;27.27;;;16.60;77.70;;;;;;5093570;28;20027;-12
2022/10/16 01:53:40;;;;;;;47.30;27.85;;;16.60;77.60;;;;;;5093656;28;20028;-12
2022/10/16 01:56:09;;;;;;;51.58;28.17;;;16.60;77.60;;;;;;5093557;28;20063;-12
2022/10/16 01:58:42;;;;;;;50.17;30.20;;;16.60;77.50;;;;;;5093349;28;20077;-13
2022/10/16 02:01:11;;;;;;;54.05;31.52;;;16.60;77.80;;;;;;5093318;28;20107;-12
2022/10/16 02:03:42;;;;;;;51.25;30.85;;;16.60;78.20;;;;;;5093390;28;20115;-13
2022/10/16 02:06:08;;;;;;;50.65;30.77;;;16.60;77.90;;;;;;5093405;28;20062;-11
2022/10/16 02:08:35;;;;;;;50.65;28.65;;;16.50;77.80;;;;;;5093347;28;20020;-12
2022/10/16 02:11:02;;;;;;;55.88;31.20;;;16.50;77.90;;;;;;5093566;28;20075;-12
2022/10/16 02:13:37;;;;;;;60.42;34.33;;;16.50;77.90;;;;;;5093298;28;20031;-12
2022/10/16 02:16:03;;;;;;;54.97;31.35;;;16.40;78.40;;;;;;5093958;28;20039;-12
2022/10/16 02:18:30;;;;;;;53.67;31.23;;;16.40;78.20;;;;;;5093230;28;20472;-12
2022/10/16 02:21:10;;;;;;;53.15;31.42;;;16.40;78.20;;;;;;5092927;28;20095;-12
2022/10/16 02:24:05;;;;;;;48.88;27.58;;;16.40;78.10;;;;;;5093490;28;20357;-12
2022/10/16 02:27:08;;;;;;;57.53;31.55;;;16.50;78.00;;;;;;5093194;28;20067;-12
2022/10/16 02:29:38;;;;;;;54.28;31.35;;;16.50;78.00;;;;;;5093691;28;20089;-13
2022/10/16 02:32:08;;;;;;;56.08;32.22;;;16.50;78.00;;;;;;5093451;28;20036;-13
2022/10/16 02:34:35;;;;;;;55.70;31.58;;;16.50;78.00;;;;;;5092975;28;20034;-12
2022/10/16 02:37:04;;;;;;;57.92;32.88;;;16.50;78.00;;;;;;5092894;28;20020;-12
2022/10/16 02:39:31;;;;;;;54.63;31.15;;;16.50;78.00;;;;;;5093063;28;20028;-12
2022/10/16 02:41:57;;;;;;;55.95;33.58;;;16.50;78.10;;;;;;5093015;28;20436;-11
2022/10/16 02:44:22;;;;;;;54.63;32.13;;;16.50;78.20;;;;;;5093071;28;20075;-12
2022/10/16 02:46:48;;;;;;;55.25;31.63;;;16.50;78.20;;;;;;5093388;28;20035;-12
2022/10/16 02:49:15;;;;;;;59.35;31.85;;;16.50;78.10;;;;;;5093500;28;20038;-12
2022/10/16 02:51:41;;;;;;;56.17;33.78;;;16.50;78.10;;;;;;5093680;28;20361;-12
2022/10/16 02:54:07;;;;;;;59.28;33.13;;;16.50;78.20;;;;;;5093262;28;20025;-12
2022/10/16 02:56:33;;;;;;;55.83;32.67;;;16.50;78.30;;;;;;5092960;28;20028;-12
2022/10/16 02:58:59;;;;;;;50.25;29.30;;;16.50;78.30;;;;;;5092677;28;20035;-12
2022/10/16 03:01:25;;;;;;;52.38;30.05;;;16.50;78.10;;;;;;5092921;28;20483;-12
2022/10/16 03:03:51;;;;;;;54.50;31.02;;;16.50;78.10;;;;;;5092874;28;20027;-12
2022/10/16 03:06:17;;;;;;;62.35;34.17;;;16.50;78.10;;;;;;5092713;28;20020;-11
2022/10/16 03:08:43;;;;;;;62.60;34.97;;;16.50;78.40;;;;;;5092819;28;20158;-12
2022/10/16 03:11:09;;;;;;;56.60;32.42;;;16.50;78.40;;;;;;5094934;28;20044;-12
2022/10/16 03:13:35;;;;;;;57.88;33.65;;;16.50;78.30;;;;;;5097036;28;20028;-12
2022/10/16 03:16:01;;;;;;;61.67;35.88;;;16.50;78.40;;;;;;5096569;28;20034;-12
2022/10/16 03:18:27;;;;;;;64.78;37.38;;;16.40;78.50;;;;;;5096541;28;20119;-13
2022/10/16 03:20:53;;;;;;;68.03;36.72;;;16.40;78.70;;;;;;5096128;28;20103;-12
2022/10/16 03:23:19;;;;;;;67.00;36.15;;;16.40;79.10;;;;;;5096332;28;20069;-12
2022/10/16 03:25:44;;;;;;;59.50;34.80;;;16.40;78.70;;;;;;5096767;28;20078;-12
2022/10/16 03:28:11;;;;;;;69.70;39.00;;;16.40;78.70;;;;;;5096288;28;20020;-13
2022/10/16 03:30:39;;;;;;;77.93;42.60;;;16.40;79.00;;;;;;5096288;28;20024;-12
2022/10/16 03:33:05;;;;;;;73.40;40.95;;;16.40;79.20;;;;;;5095932;28;20028;-12
2022/10/16 03:35:33;;;;;;;96.97;51.03;;;16.40;79.40;;;;;;5096394;28;20032;-12
2022/10/16 03:37:59;;;;;;;96.28;51.45;;;16.40;80.20;;;;;;5096160;28;20020;-12
2022/10/16 03:40:25;;;;;;;93.00;49.30;;;16.30;80.60;;;;;;5096068;28;20073;-12
2022/10/16 03:42:51;;;;;;;82.93;45.05;;;16.30;81.20;;;;;;5096447;28;20456;-12
2022/10/16 03:45:17;;;;;;;96.28;49.30;;;16.20;80.60;;;;;;5096024;28;20497;-13
2022/10/16 03:47:43;;;;;;;98.05;52.75;;;16.20;80.90;;;;;;5095972;28;20045;-13
2022/10/16 03:50:09;;;;;;;86.55;48.95;;;16.10;81.10;;;;;;5095787;28;20024;-12
2022/10/16 03:52:35;;;;;;;90.32;48.90;;;16.10;81.00;;;;;;5096129;28;20023;-12
2022/10/16 03:55:01;;;;;;;89.10;48.72;;;16.10;80.80;;;;;;5096420;28;20024;-14
2022/10/16 03:57:27;;;;;;;80.45;44.78;;;16.00;80.80;;;;;;5096439;28;20030;-13
2022/10/16 03:59:52;;;;;;;103.43;55.55;;;16.00;80.70;;;;;;5096152;28;20453;-11
2022/10/16 04:02:18;;;;;;;95.82;50.90;;;16.00;81.20;;;;;;5096082;28;20473;-11
2022/10/16 04:04:44;;;;;;;86.90;47.58;;;15.90;81.20;;;;;;5095572;28;20028;-11
2022/10/16 04:07:10;;;;;;;90.03;48.85;;;15.80;81.10;;;;;;5095312;28;20032;-11
2022/10/16 04:09:36;;;;;;;81.72;45.38;;;15.80;81.10;;;;;;5095540;28;20081;-11
2022/10/16 04:12:02;;;;;;;82.63;45.25;;;15.70;81.00;;;;;;5095209;28;20048;-12
2022/10/16 04:14:28;;;;;;;87.15;47.25;;;15.70;80.80;;;;;;5095477;28;20028;-12
2022/10/16 04:16:54;;;;;;;82.72;46.03;;;15.60;81.10;;;;;;5095549;28;20067;-11
2022/10/16 04:19:20;;;;;;;86.25;47.58;;;15.60;81.00;;;;;;5095682;28;20027;-11
2022/10/16 04:21:46;;;;;;;82.50;46.95;;;15.50;81.20;;;;;;5095256;28;20361;-12
2022/10/16 04:24:12;;;;;;;98.82;51.40;;;15.50;81.20;;;;;;5095277;28;20484;-12
2022/10/16 04:26:38;;;;;;;100.38;53.97;;;15.40;81.60;;;;;;5094010;28;20028;-13
2022/10/16 04:29:04;;;;;;;100.35;53.20;;;15.40;82.20;;;;;;5095693;28;20036;-12
2022/10/16 04:31:30;;;;;;;95.78;49.05;;;15.30;81.90;;;;;;5095365;28;20032;-12
2022/10/16 04:33:56;;;;;;;83.65;45.75;;;15.20;81.70;;;;;;5095348;28;20468;-12
2022/10/16 04:36:22;;;;;;;85.10;45.53;;;15.20;81.50;;;;;;5094918;28;20020;-12
2022/10/16 04:38:48;;;;;;;89.10;48.22;;;15.20;81.50;;;;;;5094687;28;20028;-11
2022/10/16 04:41:14;;;;;;;74.03;41.00;;;15.20;81.70;;;;;;5095185;28;20036;-12
2022/10/16 04:43:39;;;;;;;71.78;39.42;;;15.10;81.10;;;;;;5094864;28;20028;-12
2022/10/16 04:46:05;;;;;;;69.53;38.92;;;15.10;81.00;;;;;;5094737;28;20077;-12
2022/10/16 04:48:32;;;;;;;75.95;41.70;;;15.10;80.80;;;;;;5095616;28;20055;-12
2022/10/16 04:50:59;;;;;;;82.65;43.67;;;15.10;80.90;;;;;;5094443;28;20382;-13
2022/10/16 04:53:25;;;;;;;70.70;37.85;;;15.00;80.70;;;;;;5094605;28;20115;-12
2022/10/16 04:55:51;;;;;;;62.60;36.25;;;15.00;80.60;;;;;;5094632;28;20024;-12
2022/10/16 04:58:17;;;;;;;66.35;38.83;;;14.90;80.60;;;;;;5094918;28;20027;-12
2022/10/16 05:00:45;;;;;;;67.20;38.25;;;14.90;80.70;;;;;;5094696;28;20020;-12
2022/10/16 05:03:13;;;;;;;71.43;38.88;;;14.90;80.70;;;;;;5094864;28;20070;-11
2022/10/16 05:05:44;;;;;;;68.60;37.47;;;14.90;80.70;;;;;;5094676;28;20028;-12
2022/10/16 05:08:11;;;;;;;72.78;41.33;;;14.80;80.70;;;;;;5094831;28;20341;-11
2022/10/16 05:10:37;;;;;;;69.90;38.72;;;14.70;80.70;;;;;;5094161;28;20127;-12
2022/10/16 05:13:03;;;;;;;69.25;37.05;;;14.70;80.70;;;;;;5094067;28;20060;-12
2022/10/16 05:15:29;;;;;;;67.70;36.60;;;14.60;80.70;;;;;;5094634;28;20060;-13
2022/10/16 05:17:55;;;;;;;86.60;46.33;;;14.60;80.80;;;;;;5094222;28;20031;-12
2022/10/16 05:20:23;;;;;;;69.30;37.60;;;14.60;80.90;;;;;;5094051;28;20579;-12
2022/10/16 05:22:49;;;;;;;80.45;41.38;;;14.60;80.90;;;;;;5094266;28;20107;-12
2022/10/16 05:25:15;;;;;;;68.72;39.35;;;14.50;80.90;;;;;;5094091;28;20035;-12
2022/10/16 05:27:41;;;;;;;66.88;36.08;;;14.50;81.00;;;;;;5094052;28;20023;-11
2022/10/16 05:30:08;;;;;;;65.65;36.95;;;14.50;80.80;;;;;;5094814;28;20115;-12
2022/10/16 05:32:34;;;;;;;62.22;34.90;;;14.50;80.70;;;;;;5093698;28;20430;-12
2022/10/16 05:35:00;;;;;;;64.80;36.58;;;14.50;80.60;;;;;;5093827;28;20035;-12
2022/10/16 05:37:29;;;;;;;71.47;37.80;;;14.50;80.70;;;;;;5093866;28;20032;-11
2022/10/16 05:39:55;;;;;;;66.15;37.83;;;14.40;80.70;;;;;;5094424;28;20020;-11
2022/10/16 05:42:21;;;;;;;68.65;36.97;;;14.40;80.70;;;;;;5093745;28;20107;-12
2022/10/16 05:44:47;;;;;;;62.85;35.80;;;14.40;80.70;;;;;;5094138;28;20073;-12
2022/10/16 05:47:14;;;;;;;60.95;33.50;;;14.40;80.70;;;;;;5092435;28;20027;-12
2022/10/16 05:49:40;;;;;;;58.35;34.50;;;14.30;80.70;;;;;;5093963;28;20024;-12
2022/10/16 05:52:06;;;;;;;62.20;34.45;;;14.30;80.70;;;;;;5093538;28;20510;-12
2022/10/16 05:54:32;;;;;;;61.25;35.20;;;14.30;80.60;;;;;;5093737;28;20024;-12
2022/10/16 05:56:58;;;;;;;58.97;33.65;;;14.30;80.70;;;;;;5092396;28;20034;-11
2022/10/16 05:59:24;;;;;;;57.40;31.85;;;14.20;80.80;;;;;;5093515;28;20032;-13
2022/10/16 06:01:50;;;;;;;63.92;33.17;;;14.30;80.80;;;;;;5093707;28;20093;-12
2022/10/16 06:04:16;;;;;;;56.28;32.15;;;14.30;80.80;;;;;;5093473;28;20501;-12
2022/10/16 06:06:41;;;;;;;51.60;31.50;;;14.30;80.70;;;;;;5093324;28;20031;-12
2022/10/16 06:09:09;;;;;;;61.70;34.22;;;14.40;80.70;;;;;;5093445;28;20036;-12
2022/10/16 06:11:36;;;;;;;68.18;36.70;;;14.40;80.70;;;;;;5093040;28;20040;-12
2022/10/16 06:14:06;;;;;;;61.78;35.92;;;14.40;80.60;;;;;;5093679;28;20048;-12
2022/10/16 06:16:34;;;;;;;56.85;33.05;;;14.40;80.60;;;;;;5093671;28;20034;-14
2022/10/16 06:19:01;;;;;;;58.97;33.10;;;14.30;80.60;;;;;;5093128;28;20511;-12
2022/10/16 06:21:28;;;;;;;57.95;32.78;;;14.30;80.50;;;;;;5093438;28;20078;-12
2022/10/16 06:23:55;;;;;;;64.60;36.25;;;14.40;80.70;;;;;;5093533;28;20421;-12
2022/10/16 06:26:25;;;;;;;57.22;32.47;;;14.40;80.90;;;;;;5093488;28;20088;-12
2022/10/16 06:28:50;;;;;;;57.20;31.40;;;14.50;80.70;;;;;;5093198;28;20023;-12
2022/10/16 06:31:17;;;;;;;59.00;33.58;;;14.50;80.40;;;;;;5093370;28;20379;-12
2022/10/16 06:33:43;;;;;;;62.22;34.08;;;14.60;80.50;;;;;;5093373;28;20093;-12
2022/10/16 06:36:17;;;;;;;61.53;33.22;;;14.70;80.60;;;;;;5093344;28;20024;-12
2022/10/16 06:38:43;;;;;;;;;;;14.80;80.30;;;;;;5094154;28;20478;-13
2022/10/16 06:41:13;;;;;;;55.75;29.50;;;14.80;80.60;;;;;;5092876;28;20378;-12
2022/10/16 06:43:39;;;;;;;70.78;40.33;;;14.90;80.30;;;;;;5093347;28;20387;-12
2022/10/16 06:46:10;;;;;;;70.53;39.63;;;15.10;80.30;;;;;;5097178;28;20024;-11
2022/10/16 06:48:36;;;;;;;64.63;37.28;;;15.20;80.20;;;;;;5097172;28;20491;-13
2022/10/16 06:51:11;;;;;;;69.13;35.92;;;15.30;80.10;;;;;;5097118;28;20030;-11
2022/10/16 06:53:40;;;;;;;61.17;35.97;;;15.40;79.80;;;;;;5097507;28;20388;-12
2022/10/16 06:56:15;;;;;;;56.35;32.03;;;15.50;79.80;;;;;;5097301;28;20036;-12
2022/10/16 06:58:41;;;;;;;65.85;37.45;;;15.60;79.60;;;;;;5097131;28;20044;-12
2022/10/16 07:01:08;;;;;;;66.53;38.67;;;15.80;79.80;;;;;;5096676;28;20505;-12
2022/10/16 07:03:37;;;;;;;62.28;38.28;;;16.00;79.60;;;;;;5095592;28;20032;-12
2022/10/16 07:06:05;;;;;;;68.13;38.70;;;16.20;79.50;;;;;;5096986;28;20035;-12
2022/10/16 07:08:37;;;;;;;65.88;37.28;;;16.30;79.00;;;;;;5096746;28;20030;-13
2022/10/16 07:11:05;;;;;;;65.43;39.78;;;16.50;78.80;;;;;;5096495;28;20056;-12
2022/10/16 07:13:38;;;;;;;72.60;42.55;;;16.70;78.70;;;;;;5096939;28;20028;-13
2022/10/16 07:16:10;;;;;;;73.80;43.63;;;16.90;78.00;;;;;;5096593;28;20083;-12
2022/10/16 07:18:38;;;;;;;69.78;41.05;;;17.10;77.90;;;;;;5096562;28;20406;-12
2022/10/16 07:21:08;;;;;;;62.25;38.13;;;17.30;77.00;;;;;;5096576;28;20035;-12
2022/10/16 07:23:34;;;;;;;78.82;45.10;;;17.50;76.60;;;;;;5096443;28;20052;-13
2022/10/16 07:26:01;;;;;;;69.35;41.15;;;17.60;76.10;;;;;;5096403;28;20067;-12
2022/10/16 07:28:27;;;;;;;74.88;42.38;;;17.80;75.90;;;;;;5096309;28;20514;-12
2022/10/16 07:30:53;;;;;;;74.40;43.00;;;17.90;74.90;;;;;;5096249;28;20059;-12
2022/10/16 07:33:19;;;;;;;70.20;42.67;;;17.90;74.80;;;;;;5096486;28;20380;-12
2022/10/16 07:35:52;;;;;;;75.03;44.00;;;18.00;74.50;;;;;;5096125;28;20434;-11
2022/10/16 07:38:18;;;;;;;74.10;43.63;;;18.10;74.30;;;;;;5096823;28;20106;-12
2022/10/16 07:40:44;;;;;;;72.70;44.53;;;18.10;74.70;;;;;;5096780;28;20119;-12
2022/10/16 07:43:11;;;;;;;79.15;47.35;;;18.10;73.60;;;;;;5094604;28;20554;-12
2022/10/16 07:45:37;;;;;;;73.30;42.97;;;18.20;74.30;;;;;;5096105;28;20080;-11
2022/10/16 07:48:03;;;;;;;75.93;45.92;;;18.20;74.10;;;;;;5096014;28;20044;-12
2022/10/16 07:50:29;;;;;;;65.57;40.63;;;18.20;74.00;;;;;;5095763;28;20052;-12
2022/10/16 07:52:54;;;;;;;72.97;43.35;;;18.20;74.30;;;;;;5095941;28;20028;-12
2022/10/16 07:55:20;;;;;;;63.72;38.28;;;18.40;74.10;;;;;;5095134;28;20050;-12
2022/10/16 07:57:46;;;;;;;75.95;46.67;;;18.50;73.80;;;;;;5096148;28;20024;-13
2022/10/16 08:00:13;;;;;;;68.90;43.80;;;18.60;73.50;;;;;;5096007;28;20043;-13
2022/10/16 08:02:40;;;;;;;75.55;45.83;;;18.70;73.60;;;;;;5095713;28;20040;-11
2022/10/16 08:05:07;;;;;;;74.88;43.15;;;18.90;73.10;;;;;;5095311;28;20480;-12
2022/10/16 08:07:32;;;;;;;72.28;44.35;;;18.90;73.10;;;;;;5095956;28;20027;-11
2022/10/16 08:09:58;;;;;;;63.72;39.42;;;19.00;72.30;;;;;;5095849;28;20069;-11
2022/10/16 08:12:26;;;;;;;65.20;39.63;;;19.30;72.50;;;;;;5095372;28;20071;-12
2022/10/16 08:14:51;;;;;;;68.72;42.35;;;19.60;71.90;;;;;;5095297;28;20027;-12
2022/10/16 08:17:17;;;;;;;67.72;41.13;;;19.90;71.30;;;;;;5095722;28;20106;-12
2022/10/16 08:19:47;;;;;;;73.18;42.28;;;20.20;70.90;;;;;;5095625;28;20035;-11
2022/10/16 08:22:14;;;;;;;70.95;43.13;;;20.50;69.50;;;;;;5095638;28;20074;-11
2022/10/16 08:24:40;;;;;;;68.80;41.33;;;20.60;68.60;;;;;;5094002;28;20111;-12
2022/10/16 08:27:08;;;;;;;69.90;42.53;;;20.80;68.70;;;;;;5095349;28;20020;-11
2022/10/16 08:29:34;;;;;;;67.10;41.55;;;20.90;68.30;;;;;;5095690;28;20506;-12
2022/10/16 08:32:00;;;;;;;65.68;41.33;;;21.00;68.00;;;;;;5095078;28;20031;-12
2022/10/16 08:34:26;;;;;;;60.13;37.70;;;21.20;67.40;;;;;;5095248;28;20016;-12
2022/10/16 08:36:55;;;;;;;62.25;38.78;;;21.40;67.30;;;;;;5094899;28;20088;-13
2022/10/16 08:39:21;;;;;;;56.50;35.75;;;21.50;66.90;;;;;;5095006;28;20062;-11
2022/10/16 08:42:12;;;;;;;64.10;40.72;;;21.80;66.70;;;;;;5095203;28;20364;-12
2022/10/16 08:45:21;;;;;;;73.18;44.55;;;22.10;65.80;;;;;;5094933;28;20028;-12
2022/10/16 08:48:00;;;;;;;56.42;34.72;;;22.40;64.60;;;;;;5095111;28;20530;-11
2022/10/16 08:50:29;;;;;;;66.47;40.17;;;22.50;65.20;;;;;;5094630;28;20032;-11
2022/10/16 08:52:56;;;;;;;61.28;39.22;;;22.70;64.30;;;;;;5094742;28;20029;-11
2022/10/16 08:55:28;;;;;;;66.18;42.40;;;22.80;64.40;;;;;;5095031;28;20036;-11
2022/10/16 08:57:54;;;;;;;55.28;36.35;;;22.80;64.30;;;;;;5094578;28;20036;-11
2022/10/16 09:00:21;;;;;;;58.17;37.80;;;22.60;64.30;;;;;;5093289;28;20016;-10
2022/10/16 09:03:03;;;;;;;52.95;36.00;;;22.60;64.60;;;;;;5094290;28;20426;-13
2022/10/16 09:05:40;;;;;;;68.30;42.17;;;22.70;64.00;;;;;;5094686;28;20028;-12
2022/10/16 09:08:18;;;;;;;57.58;38.22;;;22.70;64.20;;;;;;5094348;28;20021;-11
2022/10/16 09:11:13;;;;;;;47.15;32.00;;;22.80;63.80;;;;;;5094385;28;20056;-11
2022/10/16 09:14:00;;;;;;;52.72;34.10;;;22.90;64.10;;;;;;5094379;28;20043;-11
2022/10/16 09:16:37;;;;;;;47.15;31.90;;;23.20;63.70;;;;;;5094202;28;20166;-11
2022/10/16 09:19:14;;;;;;;64.45;41.45;;;23.50;63.30;;;;;;5092856;28;20020;-11
2022/10/16 09:21:43;;;;;;;59.92;37.35;;;23.70;61.90;;;;;;5094088;28;20031;-11
2022/10/16 09:24:16;;;;;;;50.97;32.72;;;23.80;62.10;;;;;;5094436;28;20055;-12
2022/10/16 09:26:43;;;;;;;55.28;38.15;;;23.90;62.20;;;;;;5094182;28;20024;-11
2022/10/16 09:29:16;;;;;;;52.47;35.47;;;24.00;61.00;;;;;;5093822;28;20099;-11
2022/10/16 09:31:43;;;;;;;;;;;24.10;61.10;;;;;;5094442;28;20464;-11
2022/10/16 09:34:27;;;;;;;56.15;36.75;;;24.30;60.60;;;;;;5094544;28;19947;-11
2022/10/16 09:36:53;;;;;;;54.78;35.72;;;24.30;59.50;;;;;;5094021;28;20036;-11
2022/10/16 09:39:19;;;;;;;51.65;35.38;;;24.30;59.80;;;;;;5093844;28;20027;-11
2022/10/16 09:41:46;;;;;;;62.22;40.20;;;24.30;60.30;;;;;;5093814;28;20032;-12
2022/10/16 09:44:29;;;;;;;52.95;35.80;;;24.40;59.60;;;;;;5093792;28;20035;-12
2022/10/16 09:47:02;;;;;;;56.13;38.53;;;24.40;59.10;;;;;;5093584;28;20364;-11
2022/10/16 09:49:28;;;;;;;55.50;36.13;;;24.70;60.30;;;;;;5094193;28;20388;-11
2022/10/16 09:52:14;;;;;;;41.22;28.23;;;24.80;59.50;;;;;;5093453;28;20020;-11
2022/10/16 09:54:54;;;;;;;47.35;32.67;;;24.90;59.70;;;;;;5093859;28;20048;-11
2022/10/16 09:57:21;;;;;;;51.75;35.53;;;25.00;58.20;;;;;;5092397;28;20016;-11
2022/10/16 09:59:55;;;;;;;49.28;33.67;;;25.20;57.80;;;;;;5093832;28;20050;-10
2022/10/16 10:02:51;;;;;;;40.20;28.67;;;25.10;58.00;;;;;;5093856;28;20020;-10
2022/10/16 10:05:28;;;;;;;44.38;30.35;;;25.20;58.40;;;;;;5031245;28;20594;-11
2022/10/16 10:07:59;;;;;;;36.22;25.52;;;25.40;57.70;;;;;;5031295;28;20075;-12
2022/10/16 10:10:31;;;;;;;35.60;26.02;;;25.60;57.60;;;;;;5031042;28;20039;-11
2022/10/16 10:12:58;;;;;;;52.60;36.55;;;25.90;57.30;;;;;;5031034;28;20034;-11
2022/10/16 10:15:27;;;;;;;39.35;27.85;;;26.10;56.50;;;;;;5031118;28;20041;-11
2022/10/16 10:17:55;;;;;;;40.28;27.48;;;26.30;56.50;;;;;;5031461;28;20025;-12
2022/10/16 10:20:34;;;;;;;40.30;29.05;;;26.60;56.30;;;;;;5030643;28;20512;-12
2022/10/16 10:23:01;;;;;;;35.25;26.55;;;26.90;53.80;;;;;;5031080;28;20029;-11
2022/10/16 10:25:43;;;;;;;38.38;26.42;;;26.90;54.60;;;;;;5031030;28;20481;-12
2022/10/16 10:28:14;;;;;;;36.97;26.08;;;26.90;54.30;;;;;;5031069;28;20033;-11
2022/10/16 10:30:59;;;;;;;34.67;24.63;;;26.90;54.80;;;;;;5031024;28;20513;-11
2022/10/16 10:33:57;;;;;;;36.67;24.13;;;27.00;54.30;;;;;;5014458;28;20038;-11
2022/10/16 10:36:35;;;;;;;40.63;27.60;;;27.00;54.30;;;;;;5015142;28;20424;-11
2022/10/16 10:39:15;;;;;;;36.03;26.10;;;27.10;54.00;;;;;;5030793;28;20033;-11
2022/10/16 10:41:57;;;;;;;41.53;29.38;;;27.20;53.90;;;;;;5062926;28;20109;-12
2022/10/16 10:44:47;;;;;;;42.25;28.83;;;27.20;53.10;;;;;;5093185;28;20502;-12
2022/10/16 10:47:22;;;;;;;47.13;31.05;;;27.30;52.00;;;;;;5093022;28;20028;-13
2022/10/16 10:50:08;;;;;;;36.80;25.98;;;27.10;53.40;;;;;;5093383;28;20105;-11
2022/10/16 10:52:55;;;;;;;31.08;22.90;;;27.30;50.80;;;;;;5094056;28;20085;-11
2022/10/16 10:55:39;;;;;;;33.60;24.13;;;27.40;53.30;;;;;;5093917;28;20482;-11
2022/10/16 10:58:43;;;;;;;33.55;24.35;;;27.50;53.30;;;;;;5091702;28;20028;-11
2022/10/16 11:01:14;;;;;;;37.80;28.13;;;27.40;53.30;;;;;;5093369;28;20148;-11
2022/10/16 11:04:00;;;;;;;34.78;25.65;;;27.40;51.70;;;;;;5092900;28;20032;-12
2022/10/16 11:06:54;;;;;;;38.50;27.60;;;27.60;51.80;;;;;;5092739;28;20020;-12
2022/10/16 11:09:38;;;;;;;35.17;24.73;;;27.80;52.30;;;;;;5093429;28;20412;-12
2022/10/16 11:12:21;;;;;;;33.67;25.00;;;28.00;51.80;;;;;;5092575;28;20052;-13
2022/10/16 11:15:16;;;;;;;36.78;26.10;;;28.40;50.50;;;;;;5093258;28;20024;-15
2022/10/16 11:17:55;;;;;;;37.25;27.67;;;28.90;49.10;;;;;;5092803;28;20040;-13
2022/10/16 11:20:30;;;;;;;38.03;27.83;;;29.40;48.80;;;;;;5092976;28;20094;-12
2022/10/16 11:23:07;;;;;;;31.05;21.27;;;29.40;48.60;;;;;;5092553;28;20036;-12
2022/10/16 11:25:34;;;;;;;34.03;22.15;;;29.10;49.40;;;;;;5093023;28;20020;-13
2022/10/16 11:28:20;;;;;;;32.22;24.83;;;29.30;47.50;;;;;;5092992;28;20032;-12
2022/10/16 11:31:11;;;;;;;33.25;23.73;;;29.50;47.10;;;;;;5093253;28;20543;-11
2022/10/16 11:33:54;;;;;;;33.72;24.63;;;29.90;46.50;;;;;;5096261;28;20043;-11
2022/10/16 11:36:36;;;;;;;31.65;22.48;;;30.20;46.10;;;;;;5096072;28;20020;-11
2022/10/16 11:39:05;;;;;;;40.22;28.05;;;30.20;45.60;;;;;;5096166;28;20054;-12
2022/10/16 11:41:44;;;;;;;29.55;21.98;;;30.40;45.30;;;;;;5094778;28;20393;-12
2022/10/16 11:44:21;;;;;;;32.85;22.25;;;30.50;45.60;;;;;;5096145;28;20039;-11
2022/10/16 11:47:01;;;;;;;28.08;21.17;;;30.70;44.80;;;;;;5095908;28;20052;-12
2022/10/16 11:49:32;;;;;;;29.15;22.70;;;30.90;44.10;;;;;;5096061;28;20036;-13
2022/10/16 11:52:20;;;;;;;30.17;21.77;;;30.90;45.00;;;;;;5095775;28;20040;-11
2022/10/16 11:55:08;;;;;;;32.83;24.35;;;31.20;44.40;;;;;;5096571;28;20024;-12
2022/10/16 11:57:43;;;;;;;29.13;21.52;;;30.70;45.10;;;;;;5095924;28;20028;-11
2022/10/16 12:00:49;;;;;;;30.55;23.77;;;30.90;45.40;;;;;;5095848;28;20028;-12
2022/10/16 12:03:28;;;;;;;28.33;21.10;;;31.10;44.80;;;;;;5033374;28;20029;-12
2022/10/16 12:05:57;;;;;;;27.52;21.48;;;31.30;44.20;;;;;;5033770;28;20418;-12
2022/10/16 12:08:24;;;;;;;28.50;21.25;;;31.30;44.00;;;;;;5068842;28;20031;-12
2022/10/16 12:10:50;;;;;;;29.98;22.73;;;31.40;44.00;;;;;;5095162;28;20405;-12
2022/10/16 12:13:31;;;;;;;27.65;20.98;;;31.40;43.80;;;;;;5095508;28;20029;-12
2022/10/16 12:16:07;;;;;;;28.88;22.85;;;31.20;43.40;;;;;;5095821;28;20048;-12
2022/10/16 12:18:33;;;;;;;29.90;23.35;;;31.00;44.70;;;;;;5095496;28;20035;-12
2022/10/16 12:21:09;;;;;;;36.17;26.42;;;30.90;45.00;;;;;;5095403;28;20024;-9
2022/10/16 12:23:46;;;;;;;29.88;22.10;;;30.80;45.10;;;;;;5095705;28;20036;-10
2022/10/16 12:26:13;;;;;;;29.65;23.50;;;30.70;45.50;;;;;;5095348;28;20040;-11
2022/10/16 12:28:40;;;;;;;30.50;23.05;;;30.90;45.50;;;;;;5093985;28;20024;-11
2022/10/16 12:31:09;;;;;;;28.45;22.98;;;31.00;45.20;;;;;;5095360;28;20360;-11
2022/10/16 12:33:42;;;;;;;35.80;27.60;;;30.90;45.20;;;;;;5095149;28;20075;-11
2022/10/16 12:36:15;;;;;;;30.40;23.88;;;30.60;45.30;;;;;;5095390;28;20045;-12
2022/10/16 12:38:51;;;;;;;30.85;22.90;;;30.40;45.60;;;;;;5095433;28;20043;-11
2022/10/16 12:41:32;;;;;;;33.92;26.40;;;30.30;46.20;;;;;;5094832;28;20479;-11
2022/10/16 12:44:03;;;;;;;28.90;22.67;;;30.10;45.40;;;;;;5094980;28;20467;-12
2022/10/16 12:46:29;;;;;;;35.30;26.65;;;29.90;47.10;;;;;;5095380;28;20016;-11
2022/10/16 12:49:05;;;;;;;29.33;22.52;;;29.70;47.30;;;;;;5094929;28;20222;-10